createdAt,value
2023-07-06T01:35:43.806Z,17.78
2023-07-06T01:36:43.744Z,17.79
2023-07-06T01:37:43.723Z,17.71
2023-07-06T01:38:43.733Z,17.78
2023-07-06T01:39:43.704Z,17.78
2023-07-06T01:40:43.690Z,17.74
2023-07-06T01:41:43.690Z,17.70
2023-07-06T01:42:43.710Z,17.56
2023-07-06T01:43:43.670Z,17.62
2023-07-06T01:44:43.648Z,17.54
2023-07-06T01:45:43.655Z,17.49
2023-07-06T01:46:48.672Z,17.48
2023-07-06T01:47:43.645Z,17.56
2023-07-06T01:48:43.604Z,17.51
2023-07-06T01:49:43.593Z,17.56
2023-07-06T01:50:43.596Z,17.54
2023-07-06T01:51:43.596Z,17.55
2023-07-06T01:52:43.583Z,17.46
2023-07-06T01:53:43.545Z,17.43
2023-07-06T01:54:43.542Z,17.49
2023-07-06T01:55:43.524Z,17.46
2023-07-06T01:56:43.530Z,17.41
2023-07-06T01:58:01.087Z,17.41
2023-07-06T01:58:43.495Z,17.37
2023-07-06T01:59:43.481Z,17.41
2023-07-06T02:00:43.532Z,17.43
2023-07-06T02:01:43.477Z,17.52
2023-07-06T02:02:43.563Z,17.41
2023-07-06T02:03:43.448Z,17.44
2023-07-06T02:04:43.425Z,17.37
2023-07-06T02:05:43.421Z,17.30
2023-07-06T02:06:43.424Z,17.37
2023-07-06T02:07:43.430Z,17.34
2023-07-06T02:08:48.410Z,17.41
2023-07-06T02:09:43.389Z,17.33
2023-07-06T02:10:43.358Z,17.36
2023-07-06T02:11:43.356Z,17.36
2023-07-06T02:12:43.338Z,17.40
2023-07-06T02:13:43.406Z,17.37
2023-07-06T02:14:43.310Z,17.43
2023-07-06T02:15:43.331Z,17.41
2023-07-06T02:16:43.325Z,17.40
2023-07-06T02:17:43.379Z,17.38
2023-07-06T02:18:43.266Z,17.30
2023-07-06T02:19:48.275Z,17.33
2023-07-06T02:20:43.269Z,17.31
2023-07-06T02:21:43.261Z,17.37
2023-07-06T02:22:43.237Z,17.31
2023-07-06T02:23:45.311Z,17.33
2023-07-06T02:24:43.200Z,17.23
2023-07-06T02:25:43.203Z,17.37
2023-07-06T02:26:43.188Z,17.23
2023-07-06T02:27:43.180Z,17.23
2023-07-06T02:28:43.165Z,17.22
2023-07-06T02:29:43.170Z,17.22
2023-07-06T02:30:48.189Z,17.15
2023-07-06T02:31:43.130Z,17.15
2023-07-06T02:32:43.138Z,17.15
2023-07-06T02:33:43.115Z,17.23
2023-07-06T02:34:43.090Z,17.26
2023-07-06T02:35:43.098Z,17.18
2023-07-06T02:36:43.060Z,17.14
2023-07-06T02:37:43.060Z,17.11
2023-07-06T02:38:43.039Z,17.16
2023-07-06T02:39:43.074Z,17.21
2023-07-06T02:40:43.028Z,17.21
2023-07-06T02:41:48.033Z,17.11
2023-07-06T02:42:43.373Z,17.14
2023-07-06T02:43:42.984Z,17.21
2023-07-06T02:44:42.982Z,17.11
2023-07-06T02:45:43.000Z,17.19
2023-07-06T02:46:42.962Z,17.26
2023-07-06T02:47:43.036Z,17.12
2023-07-06T02:48:42.926Z,17.11
2023-07-06T02:49:42.925Z,17.15
2023-07-06T02:50:42.907Z,17.15
2023-07-06T02:51:42.915Z,17.18
2023-07-06T02:52:47.904Z,17.14
2023-07-06T02:53:42.886Z,17.14
2023-07-06T02:54:42.872Z,17.11
2023-07-06T02:55:42.883Z,17.16
2023-07-06T02:56:42.846Z,17.18
2023-07-06T02:57:42.850Z,17.16
2023-07-06T02:58:42.829Z,17.16
2023-07-06T02:59:42.834Z,17.15
2023-07-06T03:00:42.795Z,17.11
2023-07-06T03:01:42.846Z,17.08
2023-07-06T03:02:42.840Z,17.06
2023-07-06T03:03:47.826Z,17.06
2023-07-06T03:04:42.750Z,17.06
2023-07-06T03:05:42.757Z,17.04
2023-07-06T03:06:42.731Z,17.08
2023-07-06T03:07:42.717Z,17.08
2023-07-06T03:08:42.715Z,17.07
2023-07-06T03:09:42.712Z,17.04
2023-07-06T03:10:42.683Z,16.98
2023-07-06T03:11:42.754Z,17.01
2023-07-06T03:12:42.673Z,17.04
2023-07-06T03:13:42.704Z,17.00
2023-07-06T03:14:47.657Z,16.98
2023-07-06T03:15:42.643Z,16.96
2023-07-06T03:16:42.698Z,16.98
2023-07-06T03:17:42.737Z,16.88
2023-07-06T03:18:42.605Z,16.89
2023-07-06T03:19:42.584Z,16.91
2023-07-06T03:20:42.582Z,16.83
2023-07-06T03:21:42.574Z,16.88
2023-07-06T03:22:42.570Z,16.83
2023-07-06T03:23:42.551Z,16.85
2023-07-06T03:24:42.529Z,16.78
2023-07-06T03:25:47.541Z,16.78
2023-07-06T03:26:42.601Z,16.78
2023-07-06T03:27:42.532Z,16.78
2023-07-06T03:28:44.038Z,16.71
2023-07-06T03:29:42.473Z,16.68
2023-07-06T03:30:42.463Z,16.78
2023-07-06T03:31:42.529Z,16.71
2023-07-06T03:32:42.532Z,16.67
2023-07-06T03:33:42.444Z,16.71
2023-07-06T03:34:42.417Z,16.76
2023-07-06T03:35:42.409Z,16.81
2023-07-06T03:36:47.425Z,16.79
2023-07-06T03:37:42.397Z,16.79
2023-07-06T03:38:42.384Z,16.58
2023-07-06T03:39:42.387Z,16.78
2023-07-06T03:40:42.353Z,16.68
2023-07-06T03:41:42.351Z,16.68
2023-07-06T03:42:42.340Z,16.71
2023-07-06T03:43:42.349Z,16.63
2023-07-06T03:44:42.308Z,16.63
2023-07-06T03:45:42.416Z,16.71
2023-07-06T03:46:42.303Z,16.73
2023-07-06T03:47:47.650Z,16.70
2023-07-06T03:48:42.269Z,16.64
2023-07-06T03:49:42.251Z,16.68
2023-07-06T03:50:42.244Z,16.67
2023-07-06T03:51:42.263Z,16.68
2023-07-06T03:52:42.228Z,16.60
2023-07-06T03:53:42.210Z,16.58
2023-07-06T03:54:42.221Z,16.58
2023-07-06T03:55:42.297Z,16.57
2023-07-06T03:56:42.187Z,16.63
2023-07-06T03:57:51.204Z,16.57
2023-07-06T03:58:47.196Z,16.60
2023-07-06T03:59:42.148Z,16.60
2023-07-06T04:00:42.139Z,16.60
2023-07-06T04:01:42.168Z,16.57
2023-07-06T04:02:42.124Z,16.66
2023-07-06T04:03:42.161Z,16.56
2023-07-06T04:04:42.093Z,16.61
2023-07-06T04:05:42.089Z,16.57
2023-07-06T04:06:42.087Z,16.56
2023-07-06T04:07:42.055Z,16.58
2023-07-06T04:08:43.351Z,16.58
2023-07-06T04:09:47.059Z,16.66
2023-07-06T04:10:42.052Z,16.61
2023-07-06T04:11:42.015Z,16.60
2023-07-06T04:12:42.013Z,16.56
2023-07-06T04:13:42.042Z,16.61
2023-07-06T04:14:41.999Z,16.61
2023-07-06T04:15:42.044Z,16.58
2023-07-06T04:16:42.019Z,16.60
2023-07-06T04:17:43.085Z,16.70
2023-07-06T04:18:41.932Z,16.68
2023-07-06T04:19:41.934Z,16.66
2023-07-06T04:20:46.948Z,16.67
2023-07-06T04:21:41.914Z,16.68
2023-07-06T04:22:41.886Z,16.64
2023-07-06T04:23:43.836Z,16.61
2023-07-06T04:24:41.891Z,16.53
2023-07-06T04:25:41.860Z,16.52
2023-07-06T04:26:41.843Z,16.53
2023-07-06T04:27:41.851Z,16.56
2023-07-06T04:28:41.884Z,16.64
2023-07-06T04:29:41.819Z,16.63
2023-07-06T04:30:41.821Z,16.56
2023-07-06T04:31:46.940Z,16.57
2023-07-06T04:32:41.790Z,16.49
2023-07-06T04:33:41.762Z,16.57
2023-07-06T04:34:41.789Z,16.61
2023-07-06T04:35:41.744Z,16.68
2023-07-06T04:36:41.734Z,16.60
2023-07-06T04:37:41.725Z,16.58
2023-07-06T04:38:41.720Z,16.70
2023-07-06T04:39:41.705Z,16.68
2023-07-06T04:40:41.707Z,16.61
2023-07-06T04:41:41.683Z,16.71
2023-07-06T04:42:46.706Z,16.70
2023-07-06T04:43:41.677Z,16.73
2023-07-06T04:44:41.641Z,16.71
2023-07-06T04:45:41.630Z,16.73
2023-07-06T04:46:41.718Z,16.81
2023-07-06T04:47:41.628Z,16.76
2023-07-06T04:48:41.662Z,16.75
2023-07-06T04:49:41.584Z,16.78
2023-07-06T04:50:41.738Z,16.79
2023-07-06T04:51:41.560Z,16.73
2023-07-06T04:52:41.577Z,16.73
2023-07-06T04:53:46.571Z,16.75
2023-07-06T04:54:41.537Z,16.79
2023-07-06T04:55:41.514Z,16.81
2023-07-06T04:56:41.522Z,16.85
2023-07-06T04:57:41.519Z,16.82
2023-07-06T04:58:41.515Z,16.85
2023-07-06T04:59:41.477Z,16.89
2023-07-06T05:00:41.682Z,16.94
2023-07-06T05:01:41.455Z,16.93
2023-07-06T05:02:41.520Z,16.96
2023-07-06T05:03:41.497Z,16.96
2023-07-06T05:04:46.481Z,16.93
2023-07-06T05:05:41.589Z,16.88
2023-07-06T05:06:41.412Z,16.83
2023-07-06T05:07:41.419Z,16.82
2023-07-06T05:08:41.373Z,16.81
2023-07-06T05:09:41.383Z,16.82
2023-07-06T05:10:41.403Z,16.94
2023-07-06T05:11:41.355Z,17.00
2023-07-06T05:12:41.349Z,17.06
2023-07-06T05:13:41.372Z,17.15
2023-07-06T05:14:41.310Z,17.18
2023-07-06T05:15:46.366Z,17.23
2023-07-06T05:16:41.358Z,17.41
2023-07-06T05:17:41.314Z,17.41
2023-07-06T05:18:41.303Z,17.48
2023-07-06T05:19:41.255Z,17.49
2023-07-06T05:20:41.239Z,17.55
2023-07-06T05:21:41.245Z,17.56
2023-07-06T05:22:41.323Z,17.58
2023-07-06T05:23:41.213Z,17.58
2023-07-06T05:24:41.198Z,17.63
2023-07-06T05:25:41.184Z,17.58
2023-07-06T05:26:46.209Z,17.64
2023-07-06T05:27:41.159Z,17.66
2023-07-06T05:28:41.157Z,17.66
2023-07-06T05:29:41.139Z,17.75
2023-07-06T05:30:41.162Z,17.75
2023-07-06T05:31:41.125Z,17.86
2023-07-06T05:32:41.127Z,17.96
2023-07-06T05:33:41.091Z,17.90
2023-07-06T05:34:41.108Z,17.82
2023-07-06T05:35:41.071Z,17.84
2023-07-06T05:36:41.094Z,17.95
2023-07-06T05:37:46.076Z,18.05
2023-07-06T05:38:41.036Z,18.21
2023-07-06T05:39:41.024Z,18.29
2023-07-06T05:40:41.026Z,18.35
2023-07-06T05:41:41.038Z,18.44
2023-07-06T05:42:41.002Z,18.72
2023-07-06T05:43:40.986Z,18.76
2023-07-06T05:44:40.972Z,18.90
2023-07-06T05:45:40.971Z,19.14
2023-07-06T05:46:41.056Z,19.11
2023-07-06T05:47:41.007Z,19.08
2023-07-06T05:48:45.952Z,19.18
2023-07-06T05:49:40.910Z,19.29
2023-07-06T05:50:40.935Z,19.36
2023-07-06T05:51:40.891Z,19.31
2023-07-06T05:52:40.890Z,19.46
2023-07-06T05:53:40.870Z,19.43
2023-07-06T05:54:40.863Z,19.32
2023-07-06T05:55:40.853Z,19.29
2023-07-06T05:56:40.842Z,19.19
2023-07-06T05:57:40.822Z,19.16
2023-07-06T05:58:40.834Z,19.11
2023-07-06T05:59:45.859Z,19.16
2023-07-06T06:00:40.801Z,19.10
2023-07-06T06:01:40.821Z,19.11
2023-07-06T06:02:40.955Z,18.98
2023-07-06T06:03:40.798Z,19.13
2023-07-06T06:04:40.758Z,19.19
2023-07-06T06:05:40.765Z,19.19
2023-07-06T06:06:40.743Z,19.08
2023-07-06T06:07:40.715Z,18.95
2023-07-06T06:08:40.704Z,18.87
2023-07-06T06:09:40.697Z,18.84
2023-07-06T06:10:45.704Z,18.92
2023-07-06T06:11:40.674Z,18.88
2023-07-06T06:12:40.660Z,18.94
2023-07-06T06:13:40.711Z,18.99
2023-07-06T06:14:40.652Z,19.06
2023-07-06T06:15:40.623Z,18.95
2023-07-06T06:16:40.688Z,18.91
2023-07-06T06:17:40.747Z,18.91
2023-07-06T06:18:42.532Z,18.82
2023-07-06T06:19:40.588Z,18.81
2023-07-06T06:20:40.566Z,18.80
2023-07-06T06:21:45.612Z,18.85
2023-07-06T06:22:40.547Z,18.84
2023-07-06T06:23:40.557Z,19.02
2023-07-06T06:24:40.547Z,18.95
2023-07-06T06:25:40.514Z,19.18
2023-07-06T06:26:40.524Z,19.18
2023-07-06T06:27:40.530Z,19.28
2023-07-06T06:28:40.491Z,19.41
2023-07-06T06:29:40.473Z,19.48
2023-07-06T06:30:40.464Z,19.54
2023-07-06T06:31:40.480Z,19.54
2023-07-06T06:32:45.507Z,19.66
2023-07-06T06:33:40.437Z,19.81
2023-07-06T06:34:40.411Z,20.05
2023-07-06T06:35:40.418Z,20.10
2023-07-06T06:36:40.486Z,20.26
2023-07-06T06:37:40.416Z,20.50
2023-07-06T06:38:40.388Z,20.61
2023-07-06T06:39:40.363Z,20.97
2023-07-06T06:40:40.348Z,21.44
2023-07-06T06:41:40.357Z,21.98
2023-07-06T06:42:40.351Z,22.49
2023-07-06T06:43:45.366Z,22.70
2023-07-06T06:44:40.308Z,22.90
2023-07-06T06:45:40.293Z,22.79
2023-07-06T06:46:40.308Z,22.52
2023-07-06T06:47:40.334Z,22.31
2023-07-06T06:48:40.261Z,22.39
2023-07-06T06:49:40.263Z,22.40
2023-07-06T06:50:40.239Z,22.06
2023-07-06T06:51:40.253Z,21.65
2023-07-06T06:52:40.247Z,21.40
2023-07-06T06:53:40.245Z,21.29
2023-07-06T06:54:45.247Z,21.21
2023-07-06T06:55:40.183Z,21.22
2023-07-06T06:56:40.193Z,21.32
2023-07-06T06:57:40.178Z,21.35
2023-07-06T06:58:40.507Z,21.27
2023-07-06T06:59:40.140Z,21.37
2023-07-06T07:00:40.186Z,21.52
2023-07-06T07:01:40.191Z,21.44
2023-07-06T07:02:40.151Z,21.43
2023-07-06T07:03:40.144Z,21.50
2023-07-06T07:04:40.100Z,21.29
2023-07-06T07:05:45.094Z,20.97
2023-07-06T07:06:40.115Z,20.85
2023-07-06T07:07:40.065Z,20.94
2023-07-06T07:08:40.054Z,20.91
2023-07-06T07:09:40.052Z,20.80
2023-07-06T07:10:40.039Z,20.70
2023-07-06T07:11:40.026Z,20.69
2023-07-06T07:12:40.023Z,20.70
2023-07-06T07:13:40.020Z,20.74
2023-07-06T07:14:39.975Z,20.82
2023-07-06T07:15:39.976Z,20.91
2023-07-06T07:16:45.040Z,20.95
2023-07-06T07:17:39.974Z,21.03
2023-07-06T07:18:39.958Z,21.06
2023-07-06T07:19:39.920Z,20.92
2023-07-06T07:20:39.922Z,20.92
2023-07-06T07:21:39.907Z,20.94
2023-07-06T07:22:39.886Z,21.03
2023-07-06T07:23:39.873Z,21.12
2023-07-06T07:24:39.939Z,21.16
2023-07-06T07:25:39.881Z,21.22
2023-07-06T07:26:39.845Z,21.42
2023-07-06T07:27:44.850Z,21.47
2023-07-06T07:28:39.817Z,21.71
2023-07-06T07:29:39.805Z,21.75
2023-07-06T07:30:39.818Z,21.86
2023-07-06T07:31:39.850Z,21.88
2023-07-06T07:32:39.828Z,21.71
2023-07-06T07:33:39.760Z,21.61
2023-07-06T07:34:39.751Z,21.61
2023-07-06T07:35:39.748Z,21.62
2023-07-06T07:36:39.750Z,21.62
2023-07-06T07:37:39.747Z,21.56
2023-07-06T07:38:44.728Z,21.47
2023-07-06T07:39:39.715Z,21.34
2023-07-06T07:40:39.696Z,21.37
2023-07-06T07:41:39.693Z,21.43
2023-07-06T07:42:39.684Z,21.43
2023-07-06T07:43:39.653Z,21.49
2023-07-06T07:44:39.654Z,21.64
2023-07-06T07:45:39.668Z,21.59
2023-07-06T07:46:39.621Z,21.62
2023-07-06T07:47:39.631Z,21.69
2023-07-06T07:48:39.616Z,21.77
2023-07-06T07:49:44.620Z,21.75
2023-07-06T07:50:39.576Z,21.90
2023-07-06T07:51:39.565Z,22.02
2023-07-06T07:52:39.554Z,21.83
2023-07-06T07:53:40.636Z,21.94
2023-07-06T07:54:39.558Z,21.94
2023-07-06T07:55:39.524Z,21.82
2023-07-06T07:56:39.513Z,21.75
2023-07-06T07:57:39.524Z,21.65
2023-07-06T07:58:39.503Z,21.71
2023-07-06T07:59:39.480Z,21.74
2023-07-06T08:00:44.500Z,21.72
2023-07-06T08:01:39.491Z,21.75
2023-07-06T08:02:39.479Z,21.79
2023-07-06T08:03:39.482Z,22.02
2023-07-06T08:04:40.380Z,22.03
2023-07-06T08:05:39.414Z,22.07
2023-07-06T08:06:39.427Z,22.02
2023-07-06T08:07:39.407Z,21.96
2023-07-06T08:08:39.416Z,21.91
2023-07-06T08:09:39.373Z,21.83
2023-07-06T08:10:39.357Z,21.72
2023-07-06T08:11:44.377Z,21.62
2023-07-06T08:12:39.371Z,21.68
2023-07-06T08:13:39.389Z,21.72
2023-07-06T08:14:39.322Z,21.86
2023-07-06T08:15:39.312Z,21.83
2023-07-06T08:16:39.403Z,21.83
2023-07-06T08:17:39.312Z,21.84
2023-07-06T08:18:39.314Z,21.98
2023-07-06T08:20:01.049Z,22.15
2023-07-06T08:20:55.095Z,22.10
2023-07-06T08:22:44.291Z,22.05
2023-07-06T08:23:39.220Z,22.14
2023-07-06T08:24:39.220Z,22.12
2023-07-06T08:25:39.218Z,22.30
2023-07-06T08:26:39.188Z,22.30
2023-07-06T08:27:39.191Z,22.27
2023-07-06T08:28:39.161Z,22.09
2023-07-06T08:29:39.184Z,22.09
2023-07-06T08:30:39.146Z,22.22
2023-07-06T08:31:39.224Z,22.40
2023-07-06T08:32:39.213Z,22.62
2023-07-06T08:33:44.161Z,22.72
2023-07-06T08:34:39.099Z,22.65
2023-07-06T08:35:39.089Z,22.51
2023-07-06T08:36:39.081Z,22.65
2023-07-06T08:37:39.089Z,23.00
2023-07-06T08:38:39.053Z,23.38
2023-07-06T08:39:39.044Z,23.43
2023-07-06T08:40:39.046Z,23.55
2023-07-06T08:41:39.027Z,23.58
2023-07-06T08:42:39.008Z,23.69
2023-07-06T08:43:39.005Z,23.78
2023-07-06T08:44:44.022Z,23.80
2023-07-06T08:45:38.999Z,23.66
2023-07-06T08:46:38.984Z,23.60
2023-07-06T08:47:38.991Z,23.60
2023-07-06T08:48:38.938Z,23.61
2023-07-06T08:49:38.948Z,23.70
2023-07-06T08:50:38.927Z,24.06
2023-07-06T08:51:38.907Z,24.43
2023-07-06T08:52:38.892Z,24.76
2023-07-06T08:53:38.884Z,24.53
2023-07-06T08:54:38.874Z,24.25
2023-07-06T08:55:43.936Z,24.06
2023-07-06T08:56:38.862Z,24.02
2023-07-06T08:57:38.845Z,24.09
2023-07-06T08:58:38.829Z,24.12
2023-07-06T08:59:38.834Z,24.22
2023-07-06T09:00:38.911Z,24.35
2023-07-06T09:01:38.964Z,24.37
2023-07-06T09:02:38.831Z,24.30
2023-07-06T09:03:38.782Z,23.93
2023-07-06T09:04:38.773Z,23.66
2023-07-06T09:05:38.756Z,23.40
2023-07-06T09:06:43.763Z,23.48
2023-07-06T09:07:38.752Z,23.54
2023-07-06T09:08:38.753Z,23.68
2023-07-06T09:09:38.741Z,23.60
2023-07-06T09:10:38.700Z,23.70
2023-07-06T09:11:38.702Z,23.66
2023-07-06T09:12:38.674Z,23.79
2023-07-06T09:13:38.764Z,23.87
2023-07-06T09:14:38.670Z,23.85
2023-07-06T09:15:38.645Z,23.97
2023-07-06T09:16:38.701Z,24.00
2023-07-06T09:17:43.702Z,24.06
2023-07-06T09:18:38.643Z,23.75
2023-07-06T09:19:38.630Z,23.68
2023-07-06T09:20:38.589Z,23.70
2023-07-06T09:21:38.589Z,23.79
2023-07-06T09:22:38.570Z,23.78
2023-07-06T09:23:38.574Z,23.72
2023-07-06T09:24:38.550Z,23.88
2023-07-06T09:25:38.684Z,24.03
2023-07-06T09:26:38.530Z,24.05
2023-07-06T09:27:38.561Z,24.02
2023-07-06T09:28:43.533Z,23.98
2023-07-06T09:29:38.494Z,24.08
2023-07-06T09:30:38.512Z,24.12
2023-07-06T09:31:38.498Z,24.05
2023-07-06T09:32:38.526Z,24.09
2023-07-06T09:33:38.464Z,24.35
2023-07-06T09:34:38.439Z,24.78
2023-07-06T09:35:38.765Z,25.08
2023-07-06T09:36:38.419Z,25.08
2023-07-06T09:37:38.428Z,25.39
2023-07-06T09:38:38.402Z,25.57
2023-07-06T09:39:43.410Z,25.55
2023-07-06T09:40:38.378Z,25.46
2023-07-06T09:41:38.377Z,25.42
2023-07-06T09:42:38.358Z,25.55
2023-07-06T09:43:38.397Z,25.54
2023-07-06T09:44:38.331Z,25.25
2023-07-06T09:45:38.318Z,25.00
2023-07-06T09:46:38.367Z,24.98
2023-07-06T09:47:38.345Z,24.84
2023-07-06T09:48:38.307Z,24.76
2023-07-06T09:49:38.315Z,24.68
2023-07-06T09:50:43.283Z,24.62
2023-07-06T09:51:39.872Z,24.47
2023-07-06T09:52:38.272Z,24.67
2023-07-06T09:53:38.230Z,24.81
2023-07-06T09:54:38.220Z,25.00
2023-07-06T09:55:38.235Z,25.21
2023-07-06T09:56:38.205Z,25.13
2023-07-06T09:57:38.190Z,24.85
2023-07-06T09:58:38.170Z,24.37
2023-07-06T09:59:38.163Z,24.12
2023-07-06T10:00:38.196Z,24.06
2023-07-06T10:01:38.175Z,24.30
2023-07-06T10:02:38.172Z,24.77
2023-07-06T10:03:43.193Z,25.06
2023-07-06T10:04:38.156Z,25.15
2023-07-06T10:05:38.214Z,25.38
2023-07-06T10:06:38.101Z,25.25
2023-07-06T10:07:38.130Z,25.21
2023-07-06T10:08:38.058Z,25.00
2023-07-06T10:09:38.046Z,24.88
2023-07-06T10:10:38.047Z,24.80
2023-07-06T10:11:38.033Z,24.73
2023-07-06T10:12:38.014Z,24.61
2023-07-06T10:13:38.053Z,24.57
2023-07-06T10:14:37.995Z,24.40
2023-07-06T10:15:38.006Z,24.39
2023-07-06T10:16:43.011Z,24.31
2023-07-06T10:17:38.007Z,24.24
2023-07-06T10:18:37.948Z,24.31
2023-07-06T10:19:37.985Z,24.18
2023-07-06T10:20:37.936Z,24.02
2023-07-06T10:21:37.914Z,23.97
2023-07-06T10:22:37.911Z,23.93
2023-07-06T10:23:37.895Z,23.90
2023-07-06T10:24:37.889Z,23.88
2023-07-06T10:25:37.907Z,23.85
2023-07-06T10:26:37.858Z,23.87
2023-07-06T10:27:42.874Z,23.83
2023-07-06T10:28:37.848Z,23.87
2023-07-06T10:29:37.875Z,23.93
2023-07-06T10:30:37.829Z,23.91
2023-07-06T10:31:37.841Z,23.95
2023-07-06T10:32:37.850Z,24.00
2023-07-06T10:33:37.788Z,23.98
2023-07-06T10:34:37.783Z,23.97
2023-07-06T10:35:37.781Z,24.00
2023-07-06T10:36:37.764Z,24.09
2023-07-06T10:37:37.775Z,24.05
2023-07-06T10:38:42.763Z,23.98
2023-07-06T10:39:37.728Z,23.94
2023-07-06T10:40:37.761Z,24.05
2023-07-06T10:41:37.713Z,24.03
2023-07-06T10:42:37.684Z,24.10
2023-07-06T10:43:37.685Z,24.12
2023-07-06T10:44:37.680Z,24.12
2023-07-06T10:45:37.680Z,24.12
2023-07-06T10:46:37.823Z,24.10
2023-07-06T10:47:37.664Z,24.22
2023-07-06T10:48:37.639Z,24.12
2023-07-06T10:49:42.672Z,24.31
2023-07-06T10:50:37.597Z,24.31
2023-07-06T10:51:37.615Z,24.31
2023-07-06T10:52:37.599Z,24.40
2023-07-06T10:53:37.588Z,24.50
2023-07-06T10:54:37.572Z,24.60
2023-07-06T10:55:37.573Z,24.80
2023-07-06T10:56:37.530Z,24.87
2023-07-06T10:57:37.620Z,24.98
2023-07-06T10:58:37.520Z,24.90
2023-07-06T10:59:37.516Z,24.85
2023-07-06T11:00:42.522Z,24.85
2023-07-06T11:01:37.537Z,24.95
2023-07-06T11:02:37.519Z,24.98
2023-07-06T11:03:37.468Z,25.05
2023-07-06T11:04:37.462Z,25.14
2023-07-06T11:05:38.064Z,25.17
2023-07-06T11:06:37.430Z,25.28
2023-07-06T11:07:37.451Z,25.33
2023-07-06T11:08:37.403Z,25.33
2023-07-06T11:09:37.389Z,25.27
2023-07-06T11:10:37.377Z,25.33
2023-07-06T11:11:42.400Z,25.52
2023-07-06T11:12:37.364Z,25.67
2023-07-06T11:13:37.398Z,25.73
2023-07-06T11:14:37.340Z,25.64
2023-07-06T11:15:37.335Z,25.57
2023-07-06T11:16:37.400Z,25.65
2023-07-06T11:17:37.349Z,25.64
2023-07-06T11:18:37.345Z,25.82
2023-07-06T11:19:37.303Z,25.88
2023-07-06T11:20:37.266Z,26.29
2023-07-06T11:21:37.281Z,26.01
2023-07-06T11:22:42.288Z,25.92
2023-07-06T11:23:37.258Z,25.90
2023-07-06T11:24:37.226Z,25.73
2023-07-06T11:25:37.234Z,25.73
2023-07-06T11:26:37.216Z,25.58
2023-07-06T11:27:37.194Z,25.40
2023-07-06T11:28:37.177Z,25.32
2023-07-06T11:29:37.168Z,25.40
2023-07-06T11:30:37.164Z,25.77
2023-07-06T11:31:37.195Z,26.39
2023-07-06T11:32:37.155Z,26.50
2023-07-06T11:33:42.146Z,26.40
2023-07-06T11:34:39.314Z,26.72
2023-07-06T11:35:37.137Z,26.58
2023-07-06T11:36:37.104Z,26.39
2023-07-06T11:37:49.423Z,26.32
2023-07-06T11:38:37.097Z,26.20
2023-07-06T11:39:37.069Z,26.13
2023-07-06T11:40:37.072Z,25.97
2023-07-06T11:41:37.039Z,25.85
2023-07-06T11:42:37.031Z,25.55
2023-07-06T11:43:37.065Z,25.38
2023-07-06T11:44:37.016Z,25.36
2023-07-06T11:45:37.006Z,25.61
2023-07-06T11:46:42.081Z,25.79
2023-07-06T11:47:37.040Z,25.65
2023-07-06T11:48:36.986Z,25.72
2023-07-06T11:49:37.016Z,25.57
2023-07-06T11:50:36.944Z,25.50
2023-07-06T11:51:36.934Z,25.55
2023-07-06T11:52:36.936Z,25.75
2023-07-06T11:53:36.916Z,26.45
2023-07-06T11:54:36.963Z,26.99
2023-07-06T11:55:36.930Z,27.32
2023-07-06T11:56:36.933Z,27.25
2023-07-06T11:57:36.866Z,27.44
2023-07-06T11:58:36.877Z,27.32
2023-07-06T11:59:41.958Z,27.67
2023-07-06T12:00:36.859Z,27.93
2023-07-06T12:01:36.937Z,28.25
2023-07-06T12:02:36.836Z,27.87
2023-07-06T12:03:36.916Z,27.62
2023-07-06T12:04:36.839Z,27.24
2023-07-06T12:05:36.792Z,26.82
2023-07-06T12:06:36.770Z,26.47
2023-07-06T12:07:36.803Z,26.13
2023-07-06T12:08:37.084Z,25.99
2023-07-06T12:09:36.739Z,25.94
2023-07-06T12:10:36.758Z,25.79
2023-07-06T12:11:36.727Z,25.79
2023-07-06T12:12:41.773Z,25.54
2023-07-06T12:13:36.777Z,25.43
2023-07-06T12:14:36.708Z,25.35
2023-07-06T12:15:36.714Z,25.32
2023-07-06T12:16:36.780Z,25.20
2023-07-06T12:17:36.729Z,25.20
2023-07-06T12:18:36.675Z,25.23
2023-07-06T12:19:36.670Z,25.36
2023-07-06T12:20:36.642Z,25.54
2023-07-06T12:21:36.607Z,26.09
2023-07-06T12:22:36.614Z,26.75
2023-07-06T12:23:36.610Z,27.57
2023-07-06T12:24:36.584Z,27.99
2023-07-06T12:25:41.633Z,28.34
2023-07-06T12:26:36.578Z,28.76
2023-07-06T12:27:36.575Z,29.08
2023-07-06T12:28:36.536Z,29.39
2023-07-06T12:29:36.530Z,29.80
2023-07-06T12:30:36.534Z,30.11
2023-07-06T12:31:36.643Z,30.34
2023-07-06T12:32:37.032Z,30.75
2023-07-06T12:33:36.476Z,30.54
2023-07-06T12:34:36.509Z,30.31
2023-07-06T12:35:36.459Z,29.94
2023-07-06T12:36:36.488Z,29.65
2023-07-06T12:37:36.456Z,29.34
2023-07-06T12:38:41.452Z,29.00
2023-07-06T12:39:36.469Z,28.62
2023-07-06T12:40:36.408Z,28.34
2023-07-06T12:41:36.428Z,28.24
2023-07-06T12:42:36.392Z,27.94
2023-07-06T12:43:36.403Z,27.79
2023-07-06T12:44:36.364Z,27.60
2023-07-06T12:45:36.393Z,27.37
2023-07-06T12:46:36.477Z,27.07
2023-07-06T12:47:36.383Z,26.99
2023-07-06T12:48:36.330Z,27.03
2023-07-06T12:49:41.331Z,26.89
2023-07-06T12:50:36.372Z,26.94
2023-07-06T12:51:36.324Z,26.95
2023-07-06T12:52:36.270Z,26.92
2023-07-06T12:53:36.264Z,26.91
2023-07-06T12:54:36.249Z,26.85
2023-07-06T12:55:36.250Z,26.69
2023-07-06T12:56:36.233Z,26.65
2023-07-06T12:57:36.253Z,26.52
2023-07-06T12:58:36.209Z,26.39
2023-07-06T12:59:36.203Z,26.45
2023-07-06T13:00:36.238Z,26.39
2023-07-06T13:01:36.193Z,26.28
2023-07-06T13:02:41.294Z,26.25
2023-07-06T13:03:36.174Z,26.06
2023-07-06T13:04:36.183Z,26.23
2023-07-06T13:05:36.142Z,26.15
2023-07-06T13:06:36.122Z,26.23
2023-07-06T13:07:36.108Z,26.20
2023-07-06T13:08:36.116Z,26.20
2023-07-06T13:09:36.095Z,26.10
2023-07-06T13:10:36.086Z,26.21
2023-07-06T13:11:36.063Z,26.15
2023-07-06T13:12:36.059Z,26.18
2023-07-06T13:13:36.099Z,26.18
2023-07-06T13:14:36.089Z,26.28
2023-07-06T13:15:41.139Z,26.30
2023-07-06T13:16:36.162Z,26.29
2023-07-06T13:17:36.074Z,26.30
2023-07-06T13:18:35.995Z,26.21
2023-07-06T13:19:35.987Z,26.09
2023-07-06T13:20:36.000Z,25.97
2023-07-06T13:21:36.016Z,25.97
2023-07-06T13:22:35.956Z,25.88
2023-07-06T13:23:35.950Z,25.88
2023-07-06T13:24:35.937Z,25.88
2023-07-06T13:25:35.926Z,25.87
2023-07-06T13:26:40.954Z,25.76
2023-07-06T13:27:35.916Z,25.64
2023-07-06T13:28:35.897Z,25.58
2023-07-06T13:29:35.925Z,25.72
2023-07-06T13:30:35.889Z,25.75
2023-07-06T13:31:52.528Z,25.83
2023-07-06T13:32:35.887Z,25.97
2023-07-06T13:33:35.862Z,25.97
2023-07-06T13:34:35.863Z,25.95
2023-07-06T13:35:35.809Z,26.02
2023-07-06T13:36:35.800Z,25.99
2023-07-06T13:37:40.825Z,25.95
2023-07-06T13:38:35.795Z,25.97
2023-07-06T13:39:35.783Z,25.83
2023-07-06T13:40:35.756Z,25.75
2023-07-06T13:41:35.744Z,25.65
2023-07-06T13:42:35.750Z,25.58
2023-07-06T13:43:35.731Z,25.60
2023-07-06T13:44:35.730Z,25.62
2023-07-06T13:45:35.748Z,25.72
2023-07-06T13:46:35.718Z,25.67
2023-07-06T13:47:35.741Z,25.65
2023-07-06T13:48:40.689Z,25.57
2023-07-06T13:49:35.654Z,25.50
2023-07-06T13:50:35.647Z,25.50
2023-07-06T13:51:35.662Z,25.36
2023-07-06T13:52:35.636Z,25.43
2023-07-06T13:53:35.612Z,25.36
2023-07-06T13:54:35.609Z,25.38
2023-07-06T13:55:35.591Z,25.38
2023-07-06T13:56:35.592Z,25.28
2023-07-06T13:57:35.593Z,25.14
2023-07-06T13:58:35.615Z,25.24
2023-07-06T13:59:40.568Z,25.17
2023-07-06T14:00:35.536Z,25.10
2023-07-06T14:01:35.639Z,25.21
2023-07-06T14:02:35.617Z,25.21
2023-07-06T14:03:35.693Z,25.10
2023-07-06T14:04:35.492Z,25.05
2023-07-06T14:05:35.479Z,24.91
2023-07-06T14:06:35.495Z,24.95
2023-07-06T14:07:35.458Z,25.02
2023-07-06T14:08:35.448Z,24.99
2023-07-06T14:09:35.475Z,24.95
2023-07-06T14:10:40.473Z,24.93
2023-07-06T14:11:35.433Z,24.98
2023-07-06T14:12:35.405Z,24.99
2023-07-06T14:13:35.406Z,24.91
2023-07-06T14:14:35.389Z,25.05
2023-07-06T14:15:35.422Z,25.20
2023-07-06T14:16:35.387Z,25.33
2023-07-06T14:17:35.375Z,25.39
2023-07-06T14:18:35.339Z,25.47
2023-07-06T14:19:41.366Z,25.57
2023-07-06T14:20:35.329Z,25.73
2023-07-06T14:21:40.364Z,25.69
2023-07-06T14:22:35.299Z,25.76
2023-07-06T14:23:35.376Z,25.76
2023-07-06T14:24:35.272Z,25.64
2023-07-06T14:25:35.304Z,25.69
2023-07-06T14:26:35.262Z,25.65
2023-07-06T14:27:35.261Z,25.62
2023-07-06T14:28:35.233Z,25.65